sensor_id;sensor_type;location;lat;lon;timestamp;temperature;humidity
9881;DHT22;4979;51.014;6.678;2023-03-23T00:01:06;13.10;99.90
9881;DHT22;4979;51.014;6.678;2023-03-23T00:03:32;13.00;99.90
9881;DHT22;4979;51.014;6.678;2023-03-23T00:05:59;13.10;99.90
9881;DHT22;4979;51.014;6.678;2023-03-23T00:13:26;13.00;99.90
9881;DHT22;4979;51.014;6.678;2023-03-23T00:15:52;13.10;99.90
9881;DHT22;4979;51.014;6.678;2023-03-23T00:18:19;13.00;99.90
9881;DHT22;4979;51.014;6.678;2023-03-23T00:20:57;13.10;99.90
9881;DHT22;4979;51.014;6.678;2023-03-23T00:23:25;13.10;99.90
9881;DHT22;4979;51.014;6.678;2023-03-23T00:25:55;13.00;99.90
9881;DHT22;4979;51.014;6.678;2023-03-23T00:28:26;13.10;99.90
9881;DHT22;4979;51.014;6.678;2023-03-23T00:30:59;13.00;99.90
9881;DHT22;4979;51.014;6.678;2023-03-23T00:33:27;13.00;99.90
9881;DHT22;4979;51.014;6.678;2023-03-23T00:38:21;13.00;99.90
9881;DHT22;4979;51.014;6.678;2023-03-23T00:40:47;13.00;99.90
9881;DHT22;4979;51.014;6.678;2023-03-23T00:43:14;13.10;99.90
9881;DHT22;4979;51.014;6.678;2023-03-23T00:45:42;12.90;99.90
9881;DHT22;4979;51.014;6.678;2023-03-23T00:48:13;13.00;99.90
9881;DHT22;4979;51.014;6.678;2023-03-23T00:50:39;12.90;99.90
9881;DHT22;4979;51.014;6.678;2023-03-23T00:53:05;12.90;99.90
9881;DHT22;4979;51.014;6.678;2023-03-23T00:55:31;12.90;99.90
9881;DHT22;4979;51.014;6.678;2023-03-23T00:57:56;12.90;99.90
9881;DHT22;4979;51.014;6.678;2023-03-23T01:00:22;13.00;99.90
9881;DHT22;4979;51.014;6.678;2023-03-23T01:02:49;13.00;99.90
9881;DHT22;4979;51.014;6.678;2023-03-23T01:05:17;13.00;99.90
9881;DHT22;4979;51.014;6.678;2023-03-23T01:07:43;13.00;99.90
9881;DHT22;4979;51.014;6.678;2023-03-23T01:10:10;13.00;99.90
9881;DHT22;4979;51.014;6.678;2023-03-23T01:12:38;13.00;99.90
9881;DHT22;4979;51.014;6.678;2023-03-23T01:15:04;13.00;99.90
9881;DHT22;4979;51.014;6.678;2023-03-23T01:19:56;13.00;99.90
9881;DHT22;4979;51.014;6.678;2023-03-23T01:22:22;13.00;99.90
9881;DHT22;4979;51.014;6.678;2023-03-23T01:24:47;12.90;99.90
9881;DHT22;4979;51.014;6.678;2023-03-23T01:29:38;12.90;99.90
9881;DHT22;4979;51.014;6.678;2023-03-23T01:32:04;12.90;99.90
9881;DHT22;4979;51.014;6.678;2023-03-23T01:34:30;12.70;99.90
9881;DHT22;4979;51.014;6.678;2023-03-23T01:36:56;12.80;99.90
9881;DHT22;4979;51.014;6.678;2023-03-23T01:39:22;12.70;99.90
9881;DHT22;4979;51.014;6.678;2023-03-23T01:41:48;12.70;99.90
9881;DHT22;4979;51.014;6.678;2023-03-23T01:46:43;12.60;99.90
9881;DHT22;4979;51.014;6.678;2023-03-23T01:49:17;12.60;99.90
9881;DHT22;4979;51.014;6.678;2023-03-23T01:51:51;12.50;99.90
9881;DHT22;4979;51.014;6.678;2023-03-23T01:54:20;12.50;99.90
9881;DHT22;4979;51.014;6.678;2023-03-23T01:57:11;12.50;99.90
9881;DHT22;4979;51.014;6.678;2023-03-23T01:59:38;12.40;99.90
9881;DHT22;4979;51.014;6.678;2023-03-23T02:04:33;12.50;99.90
9881;DHT22;4979;51.014;6.678;2023-03-23T02:09:25;12.50;99.90
9881;DHT22;4979;51.014;6.678;2023-03-23T02:11:52;12.50;99.90
9881;DHT22;4979;51.014;6.678;2023-03-23T02:14:19;12.50;99.90
9881;DHT22;4979;51.014;6.678;2023-03-23T02:16:52;12.50;99.90
9881;DHT22;4979;51.014;6.678;2023-03-23T02:19:41;12.50;99.90
9881;DHT22;4979;51.014;6.678;2023-03-23T02:35:34;12.40;99.90
9881;DHT22;4979;51.014;6.678;2023-03-23T02:38:10;12.30;99.90
9881;DHT22;4979;51.014;6.678;2023-03-23T02:40:47;12.40;99.90
9881;DHT22;4979;51.014;6.678;2023-03-23T02:43:22;12.40;99.90
9881;DHT22;4979;51.014;6.678;2023-03-23T02:45:50;12.40;99.90
9881;DHT22;4979;51.014;6.678;2023-03-23T02:48:20;12.40;99.90
9881;DHT22;4979;51.014;6.678;2023-03-23T02:50:49;12.40;99.90
9881;DHT22;4979;51.014;6.678;2023-03-23T02:53:19;12.40;99.90
9881;DHT22;4979;51.014;6.678;2023-03-23T02:55:47;12.40;99.90
9881;DHT22;4979;51.014;6.678;2023-03-23T02:58:14;12.40;99.90
9881;DHT22;4979;51.014;6.678;2023-03-23T03:03:10;12.40;99.90
9881;DHT22;4979;51.014;6.678;2023-03-23T03:06:10;12.40;99.90
9881;DHT22;4979;51.014;6.678;2023-03-23T03:08:50;12.40;99.90
9881;DHT22;4979;51.014;6.678;2023-03-23T03:11:19;12.40;99.90
9881;DHT22;4979;51.014;6.678;2023-03-23T03:14:02;12.30;99.90
9881;DHT22;4979;51.014;6.678;2023-03-23T03:19:24;12.40;99.90
9881;DHT22;4979;51.014;6.678;2023-03-23T03:21:51;12.30;99.90
9881;DHT22;4979;51.014;6.678;2023-03-23T03:24:19;12.30;99.90
9881;DHT22;4979;51.014;6.678;2023-03-23T03:26:47;12.30;99.90
9881;DHT22;4979;51.014;6.678;2023-03-23T03:29:27;12.40;99.90
9881;DHT22;4979;51.014;6.678;2023-03-23T03:31:56;12.40;99.90
9881;DHT22;4979;51.014;6.678;2023-03-23T03:34:22;12.40;99.90
9881;DHT22;4979;51.014;6.678;2023-03-23T03:36:51;12.30;99.90
9881;DHT22;4979;51.014;6.678;2023-03-23T03:41:45;12.40;99.90
9881;DHT22;4979;51.014;6.678;2023-03-23T03:44:11;12.40;99.90
9881;DHT22;4979;51.014;6.678;2023-03-23T03:46:36;12.40;99.90
9881;DHT22;4979;51.014;6.678;2023-03-23T03:49:07;12.40;99.90
9881;DHT22;4979;51.014;6.678;2023-03-23T03:51:34;12.50;99.90
9881;DHT22;4979;51.014;6.678;2023-03-23T03:54:01;12.50;99.90
9881;DHT22;4979;51.014;6.678;2023-03-23T03:56:27;12.50;99.90
9881;DHT22;4979;51.014;6.678;2023-03-23T03:58:53;12.50;99.90
9881;DHT22;4979;51.014;6.678;2023-03-23T04:01:21;12.50;99.90
9881;DHT22;4979;51.014;6.678;2023-03-23T04:03:48;12.40;99.90
9881;DHT22;4979;51.014;6.678;2023-03-23T04:06:15;12.50;99.90
9881;DHT22;4979;51.014;6.678;2023-03-23T04:08:41;12.50;99.90
9881;DHT22;4979;51.014;6.678;2023-03-23T04:11:09;12.50;99.90
9881;DHT22;4979;51.014;6.678;2023-03-23T04:13:36;12.40;99.90
9881;DHT22;4979;51.014;6.678;2023-03-23T04:16:01;12.40;99.90
9881;DHT22;4979;51.014;6.678;2023-03-23T04:18:27;12.40;99.90
9881;DHT22;4979;51.014;6.678;2023-03-23T04:20:54;12.50;99.90
9881;DHT22;4979;51.014;6.678;2023-03-23T04:23:25;12.40;99.90
9881;DHT22;4979;51.014;6.678;2023-03-23T04:25:51;12.40;99.90
9881;DHT22;4979;51.014;6.678;2023-03-23T04:28:19;12.50;99.90
9881;DHT22;4979;51.014;6.678;2023-03-23T04:30:49;12.50;99.90
9881;DHT22;4979;51.014;6.678;2023-03-23T04:33:19;12.40;99.90
9881;DHT22;4979;51.014;6.678;2023-03-23T04:35:45;12.50;99.90
9881;DHT22;4979;51.014;6.678;2023-03-23T04:38:15;12.50;99.90
9881;DHT22;4979;51.014;6.678;2023-03-23T04:40:43;12.40;99.90
9881;DHT22;4979;51.014;6.678;2023-03-23T04:43:09;12.50;99.90
9881;DHT22;4979;51.014;6.678;2023-03-23T04:45:37;12.50;99.90
9881;DHT22;4979;51.014;6.678;2023-03-23T04:48:04;12.60;99.90
9881;DHT22;4979;51.014;6.678;2023-03-23T04:50:31;12.50;99.90
9881;DHT22;4979;51.014;6.678;2023-03-23T04:52:58;12.60;99.90
9881;DHT22;4979;51.014;6.678;2023-03-23T04:55:33;12.50;99.90
9881;DHT22;4979;51.014;6.678;2023-03-23T04:58:06;12.60;99.90
9881;DHT22;4979;51.014;6.678;2023-03-23T05:00:33;12.50;99.90
9881;DHT22;4979;51.014;6.678;2023-03-23T05:05:27;12.60;99.90
9881;DHT22;4979;51.014;6.678;2023-03-23T05:07:54;12.60;99.90
9881;DHT22;4979;51.014;6.678;2023-03-23T05:10:20;12.60;99.90
9881;DHT22;4979;51.014;6.678;2023-03-23T05:12:46;12.60;99.90
9881;DHT22;4979;51.014;6.678;2023-03-23T05:15:13;12.60;99.90
9881;DHT22;4979;51.014;6.678;2023-03-23T05:17:39;12.60;99.90
9881;DHT22;4979;51.014;6.678;2023-03-23T05:20:06;12.60;99.90
9881;DHT22;4979;51.014;6.678;2023-03-23T05:22:37;12.60;99.90
9881;DHT22;4979;51.014;6.678;2023-03-23T05:25:04;12.50;99.90
9881;DHT22;4979;51.014;6.678;2023-03-23T05:27:30;12.50;99.90
9881;DHT22;4979;51.014;6.678;2023-03-23T05:29:58;12.50;99.90
9881;DHT22;4979;51.014;6.678;2023-03-23T05:32:24;12.40;99.90
9881;DHT22;4979;51.014;6.678;2023-03-23T05:34:57;12.40;99.90
9881;DHT22;4979;51.014;6.678;2023-03-23T05:37:25;12.50;99.90
9881;DHT22;4979;51.014;6.678;2023-03-23T05:39:52;12.40;99.90
9881;DHT22;4979;51.014;6.678;2023-03-23T05:42:20;12.40;99.90
9881;DHT22;4979;51.014;6.678;2023-03-23T05:44:46;12.40;99.90
9881;DHT22;4979;51.014;6.678;2023-03-23T05:47:11;12.40;99.90
9881;DHT22;4979;51.014;6.678;2023-03-23T05:49:38;12.40;99.90
9881;DHT22;4979;51.014;6.678;2023-03-23T05:54:29;12.40;99.90
9881;DHT22;4979;51.014;6.678;2023-03-23T05:56:55;12.30;99.90
9881;DHT22;4979;51.014;6.678;2023-03-23T06:01:46;12.30;99.90
9881;DHT22;4979;51.014;6.678;2023-03-23T06:04:12;12.30;99.90
9881;DHT22;4979;51.014;6.678;2023-03-23T06:06:39;12.40;99.90
9881;DHT22;4979;51.014;6.678;2023-03-23T06:11:32;12.40;99.90
9881;DHT22;4979;51.014;6.678;2023-03-23T06:21:16;12.50;99.90
9881;DHT22;4979;51.014;6.678;2023-03-23T06:23:44;12.60;99.90
9881;DHT22;4979;51.014;6.678;2023-03-23T06:26:12;12.50;99.90
9881;DHT22;4979;51.014;6.678;2023-03-23T06:28:39;12.50;99.90
9881;DHT22;4979;51.014;6.678;2023-03-23T06:31:06;12.60;99.90
9881;DHT22;4979;51.014;6.678;2023-03-23T06:33:34;12.60;99.90
9881;DHT22;4979;51.014;6.678;2023-03-23T06:36:00;12.60;99.90
9881;DHT22;4979;51.014;6.678;2023-03-23T06:40:55;12.70;99.90
9881;DHT22;4979;51.014;6.678;2023-03-23T06:43:21;12.60;99.90
9881;DHT22;4979;51.014;6.678;2023-03-23T06:45:46;12.70;99.90
9881;DHT22;4979;51.014;6.678;2023-03-23T06:48:12;12.70;99.90
9881;DHT22;4979;51.014;6.678;2023-03-23T06:50:37;12.80;99.90
9881;DHT22;4979;51.014;6.678;2023-03-23T06:53:03;12.70;99.90
9881;DHT22;4979;51.014;6.678;2023-03-23T06:55:29;12.70;99.90
9881;DHT22;4979;51.014;6.678;2023-03-23T06:57:54;12.70;99.90
9881;DHT22;4979;51.014;6.678;2023-03-23T07:00:20;12.70;99.90
9881;DHT22;4979;51.014;6.678;2023-03-23T07:05:12;12.70;99.90
9881;DHT22;4979;51.014;6.678;2023-03-23T07:07:38;12.80;99.90
9881;DHT22;4979;51.014;6.678;2023-03-23T07:10:06;12.80;99.90
9881;DHT22;4979;51.014;6.678;2023-03-23T07:12:31;12.80;99.90
9881;DHT22;4979;51.014;6.678;2023-03-23T07:17:24;12.90;99.90
9881;DHT22;4979;51.014;6.678;2023-03-23T07:19:50;12.90;99.90
9881;DHT22;4979;51.014;6.678;2023-03-23T07:24:42;12.90;99.90
9881;DHT22;4979;51.014;6.678;2023-03-23T07:27:08;13.00;99.90
9881;DHT22;4979;51.014;6.678;2023-03-23T07:29:34;13.00;99.90
9881;DHT22;4979;51.014;6.678;2023-03-23T07:32:01;13.00;99.90
9881;DHT22;4979;51.014;6.678;2023-03-23T07:34:27;13.00;99.90
9881;DHT22;4979;51.014;6.678;2023-03-23T07:36:53;13.00;99.90
9881;DHT22;4979;51.014;6.678;2023-03-23T07:39:19;13.10;99.90
9881;DHT22;4979;51.014;6.678;2023-03-23T07:41:44;13.10;99.90
9881;DHT22;4979;51.014;6.678;2023-03-23T07:44:10;13.10;99.90
9881;DHT22;4979;51.014;6.678;2023-03-23T07:49:02;13.10;99.90
9881;DHT22;4979;51.014;6.678;2023-03-23T07:51:31;13.20;99.90
9881;DHT22;4979;51.014;6.678;2023-03-23T07:53:57;13.20;99.90
9881;DHT22;4979;51.014;6.678;2023-03-23T07:56:22;13.30;99.90
9881;DHT22;4979;51.014;6.678;2023-03-23T07:58:48;13.30;99.90
9881;DHT22;4979;51.014;6.678;2023-03-23T08:01:14;13.40;99.90
9881;DHT22;4979;51.014;6.678;2023-03-23T08:03:39;13.30;99.90
9881;DHT22;4979;51.014;6.678;2023-03-23T08:06:05;13.30;99.90
9881;DHT22;4979;51.014;6.678;2023-03-23T08:08:31;13.40;99.90
9881;DHT22;4979;51.014;6.678;2023-03-23T08:13:24;13.40;99.90
9881;DHT22;4979;51.014;6.678;2023-03-23T08:15:50;13.40;99.90
9881;DHT22;4979;51.014;6.678;2023-03-23T08:18:17;13.40;99.90
9881;DHT22;4979;51.014;6.678;2023-03-23T08:20:43;13.50;99.90
9881;DHT22;4979;51.014;6.678;2023-03-23T08:23:10;13.50;99.90
9881;DHT22;4979;51.014;6.678;2023-03-23T08:25:36;13.50;99.90
9881;DHT22;4979;51.014;6.678;2023-03-23T08:28:02;13.60;99.90
9881;DHT22;4979;51.014;6.678;2023-03-23T08:32:56;13.70;99.90
9881;DHT22;4979;51.014;6.678;2023-03-23T08:35:22;13.80;99.90
9881;DHT22;4979;51.014;6.678;2023-03-23T08:40:17;13.80;99.90
9881;DHT22;4979;51.014;6.678;2023-03-23T08:42:45;13.80;99.90
9881;DHT22;4979;51.014;6.678;2023-03-23T08:45:12;13.90;99.90
9881;DHT22;4979;51.014;6.678;2023-03-23T08:47:39;13.90;99.90
9881;DHT22;4979;51.014;6.678;2023-03-23T08:50:07;14.00;99.90
9881;DHT22;4979;51.014;6.678;2023-03-23T08:52:33;14.00;99.90
9881;DHT22;4979;51.014;6.678;2023-03-23T08:54:59;14.00;99.90
9881;DHT22;4979;51.014;6.678;2023-03-23T08:57:26;14.20;99.90
9881;DHT22;4979;51.014;6.678;2023-03-23T08:59:52;14.00;99.90
9881;DHT22;4979;51.014;6.678;2023-03-23T09:02:25;14.00;99.90
9881;DHT22;4979;51.014;6.678;2023-03-23T09:04:51;14.10;99.90
9881;DHT22;4979;51.014;6.678;2023-03-23T09:07:18;14.10;99.90
9881;DHT22;4979;51.014;6.678;2023-03-23T09:09:43;14.20;99.90
9881;DHT22;4979;51.014;6.678;2023-03-23T09:12:09;14.10;99.90
9881;DHT22;4979;51.014;6.678;2023-03-23T09:14:36;14.10;99.90
9881;DHT22;4979;51.014;6.678;2023-03-23T09:17:02;14.20;99.90
9881;DHT22;4979;51.014;6.678;2023-03-23T09:19:29;14.10;99.90
9881;DHT22;4979;51.014;6.678;2023-03-23T09:21:54;14.10;99.90
9881;DHT22;4979;51.014;6.678;2023-03-23T09:24:20;14.10;99.90
9881;DHT22;4979;51.014;6.678;2023-03-23T09:26:46;14.10;99.90
9881;DHT22;4979;51.014;6.678;2023-03-23T09:29:12;14.10;99.90
9881;DHT22;4979;51.014;6.678;2023-03-23T09:31:38;14.10;99.90
9881;DHT22;4979;51.014;6.678;2023-03-23T09:34:06;14.10;99.90
9881;DHT22;4979;51.014;6.678;2023-03-23T09:36:31;14.00;99.90
9881;DHT22;4979;51.014;6.678;2023-03-23T09:38:58;14.00;99.90
9881;DHT22;4979;51.014;6.678;2023-03-23T09:49:50;14.00;99.90
9881;DHT22;4979;51.014;6.678;2023-03-23T09:52:18;14.00;99.90
9881;DHT22;4979;51.014;6.678;2023-03-23T09:54:52;14.00;99.90
9881;DHT22;4979;51.014;6.678;2023-03-23T09:57:41;14.10;99.90
9881;DHT22;4979;51.014;6.678;2023-03-23T10:00:23;14.20;99.90
9881;DHT22;4979;51.014;6.678;2023-03-23T10:03:02;14.20;99.90
9881;DHT22;4979;51.014;6.678;2023-03-23T10:05:42;14.10;99.90
9881;DHT22;4979;51.014;6.678;2023-03-23T10:08:15;14.00;99.90
9881;DHT22;4979;51.014;6.678;2023-03-23T10:21:43;13.80;99.90
9881;DHT22;4979;51.014;6.678;2023-03-23T10:24:16;13.80;99.90
9881;DHT22;4979;51.014;6.678;2023-03-23T10:33:04;13.90;99.90
9881;DHT22;4979;51.014;6.678;2023-03-23T10:35:36;14.00;99.90
9881;DHT22;4979;51.014;6.678;2023-03-23T10:38:17;14.00;99.90
9881;DHT22;4979;51.014;6.678;2023-03-23T10:40:55;13.90;99.90
9881;DHT22;4979;51.014;6.678;2023-03-23T10:43:23;14.00;99.90
9881;DHT22;4979;51.014;6.678;2023-03-23T10:45:56;14.00;99.90
9881;DHT22;4979;51.014;6.678;2023-03-23T10:48:30;14.10;99.90
9881;DHT22;4979;51.014;6.678;2023-03-23T10:51:00;14.20;99.90
9881;DHT22;4979;51.014;6.678;2023-03-23T10:53:32;14.20;99.90
9881;DHT22;4979;51.014;6.678;2023-03-23T10:55:58;14.20;99.90
9881;DHT22;4979;51.014;6.678;2023-03-23T10:58:33;14.20;99.90
9881;DHT22;4979;51.014;6.678;2023-03-23T11:01:01;14.40;99.90
9881;DHT22;4979;51.014;6.678;2023-03-23T11:03:39;14.40;99.90
9881;DHT22;4979;51.014;6.678;2023-03-23T11:06:07;14.60;99.90
9881;DHT22;4979;51.014;6.678;2023-03-23T11:08:48;14.70;99.90
9881;DHT22;4979;51.014;6.678;2023-03-23T11:13:49;14.50;99.90
9881;DHT22;4979;51.014;6.678;2023-03-23T11:16:29;14.40;99.90
9881;DHT22;4979;51.014;6.678;2023-03-23T11:19:00;14.50;99.90
9881;DHT22;4979;51.014;6.678;2023-03-23T11:21:37;14.40;99.90
9881;DHT22;4979;51.014;6.678;2023-03-23T11:24:04;14.40;99.90
9881;DHT22;4979;51.014;6.678;2023-03-23T11:26:32;14.30;99.90
9881;DHT22;4979;51.014;6.678;2023-03-23T11:29:04;13.90;99.90
9881;DHT22;4979;51.014;6.678;2023-03-23T11:31:34;13.70;99.90
9881;DHT22;4979;51.014;6.678;2023-03-23T11:34:04;13.60;99.90
9881;DHT22;4979;51.014;6.678;2023-03-23T11:36:38;13.60;99.90
9881;DHT22;4979;51.014;6.678;2023-03-23T11:39:25;13.60;99.90
9881;DHT22;4979;51.014;6.678;2023-03-23T11:41:52;13.60;99.90
9881;DHT22;4979;51.014;6.678;2023-03-23T11:44:18;13.60;99.90
9881;DHT22;4979;51.014;6.678;2023-03-23T11:49:42;13.80;99.90
9881;DHT22;4979;51.014;6.678;2023-03-23T11:52:22;14.10;99.90
9881;DHT22;4979;51.014;6.678;2023-03-23T11:55:00;14.50;99.90
9881;DHT22;4979;51.014;6.678;2023-03-23T11:59:56;14.70;99.90
9881;DHT22;4979;51.014;6.678;2023-03-23T12:05:40;15.00;99.90
9881;DHT22;4979;51.014;6.678;2023-03-23T12:11:09;14.90;99.90
9881;DHT22;4979;51.014;6.678;2023-03-23T12:14:07;14.80;99.90
9881;DHT22;4979;51.014;6.678;2023-03-23T12:17:12;14.90;99.90
9881;DHT22;4979;51.014;6.678;2023-03-23T12:25:50;15.10;99.90
9881;DHT22;4979;51.014;6.678;2023-03-23T12:42:39;15.30;99.90
9881;DHT22;4979;51.014;6.678;2023-03-23T12:47:47;15.30;99.90
9881;DHT22;4979;51.014;6.678;2023-03-23T12:50:43;15.20;99.90
9881;DHT22;4979;51.014;6.678;2023-03-23T12:55:47;15.00;99.90
9881;DHT22;4979;51.014;6.678;2023-03-23T12:58:27;15.10;99.90
9881;DHT22;4979;51.014;6.678;2023-03-23T13:00:59;15.10;99.90
9881;DHT22;4979;51.014;6.678;2023-03-23T13:03:31;15.00;99.90
9881;DHT22;4979;51.014;6.678;2023-03-23T13:06:05;14.90;99.90
9881;DHT22;4979;51.014;6.678;2023-03-23T13:08:41;15.10;99.90
9881;DHT22;4979;51.014;6.678;2023-03-23T13:11:13;15.00;99.90
9881;DHT22;4979;51.014;6.678;2023-03-23T13:13:54;15.00;99.90
9881;DHT22;4979;51.014;6.678;2023-03-23T13:21:45;14.90;99.90
9881;DHT22;4979;51.014;6.678;2023-03-23T13:24:19;15.00;99.90
9881;DHT22;4979;51.014;6.678;2023-03-23T13:26:46;15.10;99.90
9881;DHT22;4979;51.014;6.678;2023-03-23T13:29:21;15.10;99.90
9881;DHT22;4979;51.014;6.678;2023-03-23T13:31:49;15.10;99.90
9881;DHT22;4979;51.014;6.678;2023-03-23T13:34:29;14.90;99.90
9881;DHT22;4979;51.014;6.678;2023-03-23T13:37:01;14.70;99.90
9881;DHT22;4979;51.014;6.678;2023-03-23T13:39:47;14.50;99.90
9881;DHT22;4979;51.014;6.678;2023-03-23T13:49:58;14.00;99.90
9881;DHT22;4979;51.014;6.678;2023-03-23T13:52:35;14.20;99.90
9881;DHT22;4979;51.014;6.678;2023-03-23T13:55:30;14.20;99.90
9881;DHT22;4979;51.014;6.678;2023-03-23T14:03:25;14.30;99.90
9881;DHT22;4979;51.014;6.678;2023-03-23T14:11:01;14.60;99.90
9881;DHT22;4979;51.014;6.678;2023-03-23T14:13:41;14.60;99.90
9881;DHT22;4979;51.014;6.678;2023-03-23T14:16:24;15.00;99.90
9881;DHT22;4979;51.014;6.678;2023-03-23T14:18:54;14.90;99.90
9881;DHT22;4979;51.014;6.678;2023-03-23T14:24:12;14.90;99.90
9881;DHT22;4979;51.014;6.678;2023-03-23T14:26:39;14.80;99.90
9881;DHT22;4979;51.014;6.678;2023-03-23T14:29:05;14.80;99.90
9881;DHT22;4979;51.014;6.678;2023-03-23T14:31:32;14.70;99.90
9881;DHT22;4979;51.014;6.678;2023-03-23T14:34:10;14.70;99.90
9881;DHT22;4979;51.014;6.678;2023-03-23T14:36:37;14.60;99.90
9881;DHT22;4979;51.014;6.678;2023-03-23T14:39:17;14.50;99.90
9881;DHT22;4979;51.014;6.678;2023-03-23T14:41:44;14.40;99.90
9881;DHT22;4979;51.014;6.678;2023-03-23T14:44:47;14.40;99.90
9881;DHT22;4979;51.014;6.678;2023-03-23T14:47:09;14.30;99.90
9881;DHT22;4979;51.014;6.678;2023-03-23T14:49:40;14.20;99.90
9881;DHT22;4979;51.014;6.678;2023-03-23T14:54:35;14.00;99.90
9881;DHT22;4979;51.014;6.678;2023-03-23T14:57:15;14.00;99.90
9881;DHT22;4979;51.014;6.678;2023-03-23T14:59:42;13.90;99.90
9881;DHT22;4979;51.014;6.678;2023-03-23T15:02:16;13.90;99.90
9881;DHT22;4979;51.014;6.678;2023-03-23T15:04:45;14.20;99.90
9881;DHT22;4979;51.014;6.678;2023-03-23T15:07:14;14.30;99.90
9881;DHT22;4979;51.014;6.678;2023-03-23T15:09:43;14.50;99.90
9881;DHT22;4979;51.014;6.678;2023-03-23T15:12:24;14.40;99.90
9881;DHT22;4979;51.014;6.678;2023-03-23T15:14:55;14.30;99.90
9881;DHT22;4979;51.014;6.678;2023-03-23T15:17:32;14.40;99.90
9881;DHT22;4979;51.014;6.678;2023-03-23T15:20:17;14.60;99.90
9881;DHT22;4979;51.014;6.678;2023-03-23T15:22:48;14.70;99.90
9881;DHT22;4979;51.014;6.678;2023-03-23T15:25:29;14.80;99.90
9881;DHT22;4979;51.014;6.678;2023-03-23T15:28:19;14.80;99.90
9881;DHT22;4979;51.014;6.678;2023-03-23T15:30:50;14.90;99.90
9881;DHT22;4979;51.014;6.678;2023-03-23T15:33:16;15.00;99.90
9881;DHT22;4979;51.014;6.678;2023-03-23T15:35:50;15.10;99.90
9881;DHT22;4979;51.014;6.678;2023-03-23T15:38:24;15.10;99.90
9881;DHT22;4979;51.014;6.678;2023-03-23T15:40:53;15.00;99.90
9881;DHT22;4979;51.014;6.678;2023-03-23T15:43:21;15.10;99.90
9881;DHT22;4979;51.014;6.678;2023-03-23T15:46:02;15.20;99.90
9881;DHT22;4979;51.014;6.678;2023-03-23T15:48:30;15.30;99.90
9881;DHT22;4979;51.014;6.678;2023-03-23T15:50:56;15.30;99.90
9881;DHT22;4979;51.014;6.678;2023-03-23T15:53:31;15.40;99.90
9881;DHT22;4979;51.014;6.678;2023-03-23T15:56:03;15.30;99.90
9881;DHT22;4979;51.014;6.678;2023-03-23T15:58:29;15.20;99.90
9881;DHT22;4979;51.014;6.678;2023-03-23T16:00:56;15.20;99.90
9881;DHT22;4979;51.014;6.678;2023-03-23T16:03:25;15.10;99.90
9881;DHT22;4979;51.014;6.678;2023-03-23T16:05:56;15.10;99.90
9881;DHT22;4979;51.014;6.678;2023-03-23T16:08:24;15.20;99.90
9881;DHT22;4979;51.014;6.678;2023-03-23T16:10:50;15.20;99.90
9881;DHT22;4979;51.014;6.678;2023-03-23T16:13:15;15.20;99.90
9881;DHT22;4979;51.014;6.678;2023-03-23T16:15:41;15.20;99.90
9881;DHT22;4979;51.014;6.678;2023-03-23T16:18:19;15.30;99.90
9881;DHT22;4979;51.014;6.678;2023-03-23T16:20:49;15.20;99.90
9881;DHT22;4979;51.014;6.678;2023-03-23T16:23:14;15.20;99.90
9881;DHT22;4979;51.014;6.678;2023-03-23T16:25:40;15.10;99.90
9881;DHT22;4979;51.014;6.678;2023-03-23T16:28:10;15.10;99.90
9881;DHT22;4979;51.014;6.678;2023-03-23T16:33:02;15.00;99.90
9881;DHT22;4979;51.014;6.678;2023-03-23T16:35:28;15.00;99.90
9881;DHT22;4979;51.014;6.678;2023-03-23T16:37:54;14.90;99.90
9881;DHT22;4979;51.014;6.678;2023-03-23T16:40:21;15.00;99.90
9881;DHT22;4979;51.014;6.678;2023-03-23T16:42:46;15.00;99.90
9881;DHT22;4979;51.014;6.678;2023-03-23T16:45:14;15.00;99.90
9881;DHT22;4979;51.014;6.678;2023-03-23T16:47:40;15.00;99.90
9881;DHT22;4979;51.014;6.678;2023-03-23T16:50:08;14.90;99.90
9881;DHT22;4979;51.014;6.678;2023-03-23T16:52:39;15.00;99.90
9881;DHT22;4979;51.014;6.678;2023-03-23T16:55:06;15.00;99.90
9881;DHT22;4979;51.014;6.678;2023-03-23T16:57:33;14.90;99.90
9881;DHT22;4979;51.014;6.678;2023-03-23T17:00:07;15.00;99.90
9881;DHT22;4979;51.014;6.678;2023-03-23T17:02:34;14.90;99.90
9881;DHT22;4979;51.014;6.678;2023-03-23T17:04:59;14.90;99.90
9881;DHT22;4979;51.014;6.678;2023-03-23T17:07:26;14.80;99.90
9881;DHT22;4979;51.014;6.678;2023-03-23T17:09:51;14.70;99.90
9881;DHT22;4979;51.014;6.678;2023-03-23T17:12:17;14.80;99.90
9881;DHT22;4979;51.014;6.678;2023-03-23T17:17:09;14.70;99.90
9881;DHT22;4979;51.014;6.678;2023-03-23T17:19:34;14.60;99.90
9881;DHT22;4979;51.014;6.678;2023-03-23T17:22:00;14.50;99.90
9881;DHT22;4979;51.014;6.678;2023-03-23T17:26:53;14.50;99.90
9881;DHT22;4979;51.014;6.678;2023-03-23T17:29:19;14.50;99.90
9881;DHT22;4979;51.014;6.678;2023-03-23T17:31:47;14.40;99.90
9881;DHT22;4979;51.014;6.678;2023-03-23T17:34:12;14.40;99.90
9881;DHT22;4979;51.014;6.678;2023-03-23T17:36:38;14.30;99.90
9881;DHT22;4979;51.014;6.678;2023-03-23T17:39:03;14.30;99.90
9881;DHT22;4979;51.014;6.678;2023-03-23T17:41:29;14.30;99.90
9881;DHT22;4979;51.014;6.678;2023-03-23T17:43:54;14.30;99.90
9881;DHT22;4979;51.014;6.678;2023-03-23T17:48:46;14.20;99.90
9881;DHT22;4979;51.014;6.678;2023-03-23T17:51:12;14.10;99.90
9881;DHT22;4979;51.014;6.678;2023-03-23T17:56:05;14.00;99.90
9881;DHT22;4979;51.014;6.678;2023-03-23T18:00:57;14.00;99.90
9881;DHT22;4979;51.014;6.678;2023-03-23T18:03:23;13.90;99.90
9881;DHT22;4979;51.014;6.678;2023-03-23T18:08:17;13.90;99.90
9881;DHT22;4979;51.014;6.678;2023-03-23T18:10:43;13.90;99.90
9881;DHT22;4979;51.014;6.678;2023-03-23T18:15:35;13.80;99.90
9881;DHT22;4979;51.014;6.678;2023-03-23T18:18:03;13.70;99.90
9881;DHT22;4979;51.014;6.678;2023-03-23T18:20:30;13.60;99.90
9881;DHT22;4979;51.014;6.678;2023-03-23T18:22:56;13.60;99.90
9881;DHT22;4979;51.014;6.678;2023-03-23T18:25:23;13.70;99.90
9881;DHT22;4979;51.014;6.678;2023-03-23T18:27:48;13.70;99.90
9881;DHT22;4979;51.014;6.678;2023-03-23T18:30:14;13.70;99.90
9881;DHT22;4979;51.014;6.678;2023-03-23T18:32:40;13.60;99.90
9881;DHT22;4979;51.014;6.678;2023-03-23T18:35:07;13.60;99.90
9881;DHT22;4979;51.014;6.678;2023-03-23T18:37:34;13.60;99.90
9881;DHT22;4979;51.014;6.678;2023-03-23T18:40:00;13.70;99.90
9881;DHT22;4979;51.014;6.678;2023-03-23T18:44:53;13.60;99.90
9881;DHT22;4979;51.014;6.678;2023-03-23T18:47:19;13.60;99.90
9881;DHT22;4979;51.014;6.678;2023-03-23T18:49:46;13.60;99.90
9881;DHT22;4979;51.014;6.678;2023-03-23T18:52:18;13.50;99.90
9881;DHT22;4979;51.014;6.678;2023-03-23T18:54:44;13.50;99.90
9881;DHT22;4979;51.014;6.678;2023-03-23T18:57:11;13.50;99.90
9881;DHT22;4979;51.014;6.678;2023-03-23T18:59:36;13.40;99.90
9881;DHT22;4979;51.014;6.678;2023-03-23T19:02:03;13.40;99.90
9881;DHT22;4979;51.014;6.678;2023-03-23T19:04:29;13.40;99.90
9881;DHT22;4979;51.014;6.678;2023-03-23T19:06:57;13.40;99.90
9881;DHT22;4979;51.014;6.678;2023-03-23T19:09:22;13.30;99.90
9881;DHT22;4979;51.014;6.678;2023-03-23T19:14:16;13.30;99.90
9881;DHT22;4979;51.014;6.678;2023-03-23T19:16:42;13.40;99.90
9881;DHT22;4979;51.014;6.678;2023-03-23T19:19:08;13.50;99.90
9881;DHT22;4979;51.014;6.678;2023-03-23T19:21:35;13.40;99.90
9881;DHT22;4979;51.014;6.678;2023-03-23T19:24:02;13.50;99.90
9881;DHT22;4979;51.014;6.678;2023-03-23T19:26:36;13.60;99.90
9881;DHT22;4979;51.014;6.678;2023-03-23T19:29:06;13.60;99.90
9881;DHT22;4979;51.014;6.678;2023-03-23T19:31:32;13.60;99.90